Terminal Aerodrome Forecast
Issued by NWS

Home | Current Version | Previous Version | Text Only | Print | Product List | Glossary On
Versions: 1 2 3 4 5 6 7 8 9 10 11 12 13 14 15 16 17
710
FTUS46 KMTR 240520
TAFSJC
TAF
KSJC 240520Z 2406/2506 33007KT P6SM BKN020 OVC080
     FM240900 31004KT P6SM OVC020
     FM241800 32012KT P6SM SCT030 BKN100
     FM250300 30008KT P6SM SCT020=

USA.gov is the U.S. government's official web portal to all federal, state and local government web resources and services.